Time;durP1;ratioP1;P1;durP2;ratioP2;P2;SDS_P1;SDS_P2;PMS_P1;PMS_P2;Temp;Humidity;BMP_temperature;BMP_pressure;BME280_temperature;BME280_humidity;BME280_pressure;Samples;Min_cycle;Max_cycle;Signal;HPM_P1;HPM_P2
2023/08/27 00:00:30;;;;;;;9.67;5.67;;;17.70;98.00;;;;;;5030453;28;20462;-68
2023/08/27 00:02:57;;;;;;;8.90;5.60;;;17.60;98.00;;;;;;5030530;28;20455;-68
2023/08/27 00:05:24;;;;;;;13.50;5.63;;;17.60;98.00;;;;;;5031428;28;20454;-68
2023/08/27 00:07:53;;;;;;;11.93;5.63;;;17.60;98.00;;;;;;5031614;28;20968;-68
2023/08/27 00:10:20;;;;;;;10.37;5.70;;;17.70;98.00;;;;;;5031244;28;20459;-68
2023/08/27 00:12:46;;;;;;;12.60;6.10;;;17.60;98.00;;;;;;5031367;28;20506;-68
2023/08/27 00:15:13;;;;;;;12.20;5.87;;;17.70;98.00;;;;;;5034494;28;20466;-68
2023/08/27 00:17:41;;;;;;;11.57;5.77;;;17.80;98.00;;;;;;5035411;28;20454;-67
2023/08/27 00:20:10;;;;;;;8.90;5.20;;;17.80;98.00;;;;;;5034243;28;20952;-68
2023/08/27 00:22:38;;;;;;;12.33;5.80;;;17.90;98.00;;;;;;5035310;28;20454;-68
2023/08/27 00:25:07;;;;;;;13.30;6.10;;;17.80;98.00;;;;;;5035459;28;20446;-68
2023/08/27 00:27:34;;;;;;;10.60;5.73;;;17.80;98.00;;;;;;5035363;28;20450;-68
2023/08/27 00:30:04;;;;;;;11.97;6.67;;;17.80;98.00;;;;;;5035414;28;20533;-67
2023/08/27 00:32:33;;;;;;;10.67;5.00;;;17.60;98.00;;;;;;5035230;28;20514;-68
2023/08/27 00:35:00;;;;;;;9.90;5.60;;;17.50;98.00;;;;;;5035420;28;20906;-68
2023/08/27 00:37:27;;;;;;;13.57;5.07;;;17.60;98.00;;;;;;5034011;28;20458;-68
2023/08/27 00:39:55;;;;;;;11.93;5.13;;;17.70;98.00;;;;;;5035310;28;20458;-68
2023/08/27 00:42:23;;;;;;;8.97;4.20;;;17.60;98.00;;;;;;5017688;28;20478;-68
2023/08/27 00:44:50;;;;;;;6.80;4.50;;;17.70;98.00;;;;;;5035425;28;20511;-68
2023/08/27 00:47:18;;;;;;;6.43;4.37;;;17.70;98.00;;;;;;5035109;28;20577;-68
2023/08/27 00:49:46;;;;;;;9.90;4.77;;;17.70;98.00;;;;;;5035353;28;20804;-68
2023/08/27 00:52:13;;;;;;;9.47;5.60;;;17.80;98.00;;;;;;5034817;28;20920;-67
2023/08/27 00:54:41;;;;;;;10.67;4.60;;;18.00;98.00;;;;;;5034643;28;20442;-68
2023/08/27 00:57:09;;;;;;;9.83;5.20;;;18.10;98.00;;;;;;5034706;28;20546;-68
2023/08/27 00:59:38;;;;;;;11.63;4.57;;;18.00;98.00;;;;;;5033621;28;20948;-67
2023/08/27 01:02:05;;;;;;;8.90;5.30;;;18.00;98.00;;;;;;5034710;28;20451;-68
2023/08/27 01:04:34;;;;;;;10.70;4.30;;;18.10;98.00;;;;;;5033174;28;20455;-68
2023/08/27 01:07:16;;;;;;;10.70;4.70;;;17.90;98.00;;;;;;5034442;28;20496;-68
2023/08/27 01:09:51;;;;;;;8.37;4.53;;;17.80;98.00;;;;;;5034367;28;20482;-68
2023/08/27 01:12:26;;;;;;;7.70;4.53;;;17.90;98.00;;;;;;5034113;28;20490;-68
2023/08/27 01:14:57;;;;;;;12.53;5.60;;;18.00;98.00;;;;;;5034443;28;20470;-68
2023/08/27 01:17:24;;;;;;;8.70;5.10;;;18.00;98.00;;;;;;5034212;28;20503;-68
2023/08/27 01:19:52;;;;;;;9.07;4.90;;;18.00;98.00;;;;;;5034508;28;20855;-68
2023/08/27 01:22:20;;;;;;;10.73;4.80;;;18.00;98.00;;;;;;5034325;28;20450;-68
2023/08/27 01:24:47;;;;;;;9.90;4.90;;;18.00;98.00;;;;;;5034207;28;20450;-68
2023/08/27 01:27:22;;;;;;;7.80;4.50;;;18.00;98.00;;;;;;5033312;28;20799;-68
2023/08/27 01:30:03;;;;;;;8.23;5.10;;;17.80;98.00;;;;;;5034295;28;20927;-68
2023/08/27 01:32:33;;;;;;;9.60;5.27;;;17.90;98.00;;;;;;5034143;28;20454;-68
2023/08/27 01:35:03;;;;;;;9.10;5.37;;;18.00;98.00;;;;;;5034292;28;20451;-68
2023/08/27 01:37:32;;;;;;;9.23;5.30;;;17.80;98.00;;;;;;5034212;28;20446;-68
2023/08/27 01:40:00;;;;;;;12.60;5.87;;;17.70;98.00;;;;;;5034104;28;20952;-68
2023/08/27 01:42:28;;;;;;;10.57;5.17;;;17.70;98.00;;;;;;5034201;28;20454;-68
2023/08/27 01:44:57;;;;;;;10.00;4.67;;;17.80;98.00;;;;;;5034129;28;20451;-68
2023/08/27 01:47:24;;;;;;;10.63;6.00;;;17.90;98.00;;;;;;5034002;28;20453;-68
2023/08/27 01:49:51;;;;;;;15.27;6.07;;;18.00;98.00;;;;;;5033600;28;20816;-68
2023/08/27 01:52:19;;;;;;;13.47;5.57;;;18.00;98.00;;;;;;5032612;28;20512;-68
2023/08/27 01:54:47;;;;;;;10.77;5.30;;;18.10;98.00;;;;;;5032420;28;20455;-68
2023/08/27 01:57:14;;;;;;;13.73;5.47;;;18.10;98.00;;;;;;5033584;28;20963;-68
2023/08/27 01:59:41;;;;;;;11.57;6.23;;;18.00;98.00;;;;;;5033564;28;20936;-68
2023/08/27 02:02:08;;;;;;;9.77;5.60;;;18.00;98.00;;;;;;5032342;28;20505;-68
2023/08/27 02:04:37;;;;;;;12.50;6.50;;;17.90;98.00;;;;;;5033498;28;20450;-68
2023/08/27 02:07:04;;;;;;;11.73;5.93;;;17.80;98.00;;;;;;5032106;28;20451;-68
2023/08/27 02:09:32;;;;;;;12.90;6.07;;;17.60;98.00;;;;;;5033427;28;20454;-68
2023/08/27 02:12:01;;;;;;;13.80;5.97;;;17.60;98.00;;;;;;5033367;28;20481;-68
2023/08/27 02:14:28;;;;;;;14.43;5.77;;;17.50;98.00;;;;;;5033180;28;20487;-68
2023/08/27 02:16:55;;;;;;;10.80;5.60;;;17.50;98.00;;;;;;5033290;28;20496;-68
2023/08/27 02:19:22;;;;;;;11.20;5.37;;;17.60;98.00;;;;;;5033288;28;20454;-68
2023/08/27 02:21:51;;;;;;;9.10;5.10;;;17.50;98.00;;;;;;5033088;28;20458;-68
2023/08/27 02:24:18;;;;;;;7.37;4.53;;;17.50;98.00;;;;;;5033168;28;20450;-68
2023/08/27 02:26:45;;;;;;;12.00;5.37;;;17.50;98.00;;;;;;5033063;28;20508;-67
2023/08/27 02:29:13;;;;;;;9.40;5.20;;;17.60;98.00;;;;;;5033199;28;20454;-68
2023/08/27 02:31:40;;;;;;;9.17;5.30;;;17.50;98.00;;;;;;5033038;28;20811;-68
2023/08/27 02:34:08;;;;;;;9.33;5.30;;;17.80;98.00;;;;;;5032971;28;20482;-68
2023/08/27 02:36:35;;;;;;;15.60;6.30;;;18.00;98.00;;;;;;5032743;28;20447;-68
2023/08/27 02:39:02;;;;;;;13.73;5.70;;;17.90;98.00;;;;;;5033251;28;20924;-68
2023/08/27 02:41:29;;;;;;;10.03;5.30;;;17.90;98.00;;;;;;5032820;28;20458;-68
2023/08/27 02:43:57;;;;;;;10.43;5.50;;;18.00;98.00;;;;;;5032612;28;20508;-68
2023/08/27 02:46:26;;;;;;;10.20;5.83;;;17.90;98.00;;;;;;5032487;28;20481;-68
2023/08/27 02:48:53;;;;;;;11.47;5.33;;;17.90;98.00;;;;;;5032342;28;20462;-68
2023/08/27 02:51:20;;;;;;;10.77;5.57;;;17.80;98.00;;;;;;5031345;28;20455;-68
2023/08/27 02:53:50;;;;;;;9.83;5.70;;;17.80;98.00;;;;;;5031314;28;20486;-68
2023/08/27 02:56:18;;;;;;;11.10;5.43;;;17.80;98.00;;;;;;5032536;28;20478;-68
2023/08/27 02:58:49;;;;;;;14.33;6.10;;;17.70;98.00;;;;;;5031354;28;20458;-68
2023/08/27 03:01:18;;;;;;;12.30;6.20;;;17.70;98.00;;;;;;5032387;28;20494;-68
2023/08/27 03:03:47;;;;;;;15.77;6.23;;;17.50;98.00;;;;;;5031334;28;20580;-68
2023/08/27 03:06:14;;;;;;;11.30;5.57;;;17.40;98.00;;;;;;5032532;28;20447;-68
2023/08/27 03:08:41;;;;;;;10.27;5.10;;;17.50;98.00;;;;;;5032409;28;20462;-68
2023/08/27 03:11:16;;;;;;;10.83;5.10;;;17.60;98.00;;;;;;5032435;28;20787;-67
2023/08/27 03:13:43;;;;;;;10.90;5.67;;;17.80;98.00;;;;;;5031887;28;20482;-68
2023/08/27 03:16:10;;;;;;;10.00;5.00;;;17.80;98.00;;;;;;5031125;28;20512;-68
2023/08/27 03:18:37;;;;;;;8.63;4.80;;;17.80;98.00;;;;;;5032295;28;20453;-68
2023/08/27 03:21:06;;;;;;;8.37;5.13;;;17.90;98.00;;;;;;5014874;28;20455;-68
2023/08/27 03:23:35;;;;;;;10.40;5.63;;;18.00;98.00;;;;;;5032152;28;20462;-68
2023/08/27 03:26:03;;;;;;;11.07;5.57;;;17.90;98.00;;;;;;5032153;28;20963;-68
2023/08/27 03:28:30;;;;;;;7.83;4.43;;;17.70;98.00;;;;;;5032216;28;20457;-67
2023/08/27 03:30:57;;;;;;;8.40;4.57;;;17.60;98.00;;;;;;5031995;28;20465;-68
2023/08/27 03:33:27;;;;;;;8.80;4.80;;;17.60;98.00;;;;;;5031548;28;20569;-68
2023/08/27 03:35:56;;;;;;;12.50;5.10;;;17.60;98.00;;;;;;5031564;28;20534;-68
2023/08/27 03:38:24;;;;;;;9.03;4.93;;;17.70;98.00;;;;;;5031451;28;20550;-68
2023/08/27 03:40:55;;;;;;;7.70;4.40;;;17.80;98.00;;;;;;5031200;28;20534;-67
2023/08/27 03:43:22;;;;;;;7.27;4.63;;;17.60;98.00;;;;;;5031345;28;20545;-68
2023/08/27 03:45:49;;;;;;;7.27;4.37;;;17.60;98.00;;;;;;5031334;28;20459;-68
2023/08/27 03:48:16;;;;;;;7.80;4.43;;;17.50;98.00;;;;;;5031249;28;20497;-68
2023/08/27 03:50:48;;;;;;;9.10;4.97;;;17.50;98.00;;;;;;5035362;28;21065;-68
2023/08/27 03:53:15;;;;;;;7.67;4.27;;;17.40;98.00;;;;;;5035890;28;20482;-68
2023/08/27 03:55:44;;;;;;;8.13;4.67;;;17.40;98.00;;;;;;5035893;28;20466;-68
2023/08/27 03:58:11;;;;;;;7.67;4.80;;;17.40;98.00;;;;;;5036080;28;20458;-67
2023/08/27 04:00:38;;;;;;;14.23;4.50;;;17.40;98.00;;;;;;5036025;28;20442;-68
2023/08/27 04:03:06;;;;;;;6.90;3.90;;;17.50;98.00;;;;;;5035727;28;20447;-68
2023/08/27 04:05:33;;;;;;;6.17;3.83;;;17.70;98.00;;;;;;5035634;28;20485;-68
2023/08/27 04:08:00;;;;;;;8.60;4.77;;;17.70;98.00;;;;;;5034126;28;20443;-68
2023/08/27 04:10:27;;;;;;;7.47;4.27;;;17.80;98.00;;;;;;5035830;28;20459;-68
2023/08/27 04:12:57;;;;;;;8.43;4.20;;;17.80;98.00;;;;;;5035974;28;20465;-67
2023/08/27 04:15:25;;;;;;;7.60;4.20;;;17.80;98.00;;;;;;5035601;28;20482;-68
2023/08/27 04:17:52;;;;;;;8.83;4.33;;;17.80;98.00;;;;;;5035654;28;20454;-68
2023/08/27 04:20:19;;;;;;;6.80;4.43;;;17.70;98.00;;;;;;5035563;28;20949;-68
2023/08/27 04:22:46;;;;;;;8.33;4.53;;;17.90;98.00;;;;;;5035526;28;20457;-68
2023/08/27 04:25:15;;;;;;;7.90;4.53;;;18.00;98.00;;;;;;5035553;28;20952;-68
2023/08/27 04:27:43;;;;;;;7.43;4.80;;;18.00;98.00;;;;;;5035333;28;20451;-68
2023/08/27 04:30:13;;;;;;;5.93;4.13;;;17.90;98.00;;;;;;5035383;28;20454;-68
2023/08/27 04:32:40;;;;;;;8.00;4.20;;;17.70;98.00;;;;;;5035244;28;20451;-68
2023/08/27 04:35:08;;;;;;;7.40;4.37;;;17.70;98.00;;;;;;5017437;28;20573;-67
2023/08/27 04:37:35;;;;;;;9.33;4.33;;;17.60;98.00;;;;;;5035338;28;20446;-68
2023/08/27 04:40:03;;;;;;;6.60;4.10;;;17.60;98.00;;;;;;5034920;28;20465;-68
2023/08/27 04:42:30;;;;;;;11.30;4.23;;;17.80;98.00;;;;;;5034960;28;20454;-68
2023/08/27 04:44:57;;;;;;;7.77;4.37;;;17.70;98.00;;;;;;5033652;28;20450;-68
2023/08/27 04:47:31;;;;;;;8.00;4.63;;;17.70;98.00;;;;;;5035060;28;20454;-68
2023/08/27 04:49:58;;;;;;;9.63;5.00;;;17.60;98.00;;;;;;5033788;28;20454;-67
2023/08/27 04:52:25;;;;;;;8.77;4.13;;;17.50;98.00;;;;;;5034969;28;20446;-68
2023/08/27 04:54:53;;;;;;;12.70;4.40;;;17.40;98.00;;;;;;5034958;28;20552;-68
2023/08/27 04:57:20;;;;;;;9.50;4.20;;;17.40;98.00;;;;;;5033481;28;20465;-67
2023/08/27 04:59:47;;;;;;;7.97;4.70;;;17.30;98.00;;;;;;5034842;28;20458;-67
2023/08/27 05:02:14;;;;;;;7.50;4.20;;;17.40;98.00;;;;;;5034794;28;20457;-67
2023/08/27 05:04:44;;;;;;;7.60;4.10;;;17.40;98.00;;;;;;5034663;28;20457;-68
2023/08/27 05:07:11;;;;;;;9.80;4.37;;;17.50;98.00;;;;;;5034786;28;20462;-68
2023/08/27 05:09:38;;;;;;;8.00;4.30;;;17.60;98.00;;;;;;5033417;28;20932;-68
2023/08/27 05:12:06;;;;;;;7.50;4.97;;;17.80;98.00;;;;;;5034446;28;21011;-68
2023/08/27 05:14:33;;;;;;;6.57;4.27;;;17.80;98.00;;;;;;5016873;28;20513;-68
2023/08/27 05:17:00;;;;;;;7.97;4.57;;;17.90;98.00;;;;;;5034578;28;20509;-67
2023/08/27 05:19:27;;;;;;;8.93;5.00;;;17.80;98.00;;;;;;5034616;28;20812;-67
2023/08/27 05:21:56;;;;;;;7.67;4.73;;;17.90;98.00;;;;;;5033483;28;20451;-68
2023/08/27 05:24:23;;;;;;;8.00;4.80;;;17.90;98.00;;;;;;5034403;28;20921;-68
2023/08/27 05:26:51;;;;;;;8.50;4.90;;;17.80;98.00;;;;;;5034698;28;21200;-67
2023/08/27 05:29:18;;;;;;;12.13;4.43;;;17.80;98.00;;;;;;5033838;28;20513;-67
2023/08/27 05:31:45;;;;;;;8.13;4.83;;;17.80;98.00;;;;;;5034096;28;20458;-68
2023/08/27 05:34:13;;;;;;;9.67;5.10;;;17.90;98.00;;;;;;5033948;28;20522;-67
2023/08/27 05:36:40;;;;;;;9.10;4.67;;;17.80;98.00;;;;;;5034038;28;20975;-68
2023/08/27 05:39:09;;;;;;;9.20;4.97;;;17.80;98.00;;;;;;5034253;28;20455;-68
2023/08/27 05:41:36;;;;;;;8.30;4.70;;;17.70;98.00;;;;;;5016073;28;20442;-68
2023/08/27 05:44:04;;;;;;;7.17;4.57;;;17.70;98.00;;;;;;5032605;28;20454;-67
2023/08/27 05:46:31;;;;;;;7.57;4.23;;;17.70;98.00;;;;;;5015907;28;20964;-68
2023/08/27 05:49:01;;;;;;;7.60;4.40;;;17.70;98.00;;;;;;5033770;28;20482;-68
2023/08/27 05:51:28;;;;;;;7.90;4.53;;;17.70;98.00;;;;;;5033621;28;20454;-68
2023/08/27 05:53:55;;;;;;;6.40;4.10;;;17.60;98.00;;;;;;5033647;28;20442;-68
2023/08/27 05:56:26;;;;;;;8.73;4.83;;;17.60;98.00;;;;;;5033811;28;20533;-68
2023/08/27 05:58:53;;;;;;;9.00;4.80;;;17.60;98.00;;;;;;5033578;28;20454;-68
2023/08/27 06:01:20;;;;;;;8.20;5.23;;;17.60;98.00;;;;;;5033733;28;20455;-68
2023/08/27 06:03:47;;;;;;;7.37;4.70;;;17.60;98.00;;;;;;5033785;28;20455;-68
2023/08/27 06:06:14;;;;;;;7.30;4.40;;;17.80;98.00;;;;;;5033459;28;20915;-68
2023/08/27 06:08:41;;;;;;;11.07;5.13;;;17.90;98.00;;;;;;5033450;28;20455;-68
2023/08/27 06:11:08;;;;;;;10.13;4.93;;;18.10;98.00;;;;;;5032286;28;20454;-68
2023/08/27 06:13:37;;;;;;;11.73;5.67;;;18.20;98.00;;;;;;5032943;28;20960;-68
2023/08/27 06:16:06;;;;;;;10.30;4.83;;;18.10;98.00;;;;;;5033354;28;20478;-68
2023/08/27 06:18:33;;;;;;;7.97;4.53;;;18.00;98.00;;;;;;5033613;28;20451;-68
2023/08/27 06:21:00;;;;;;;6.00;4.20;;;18.00;98.00;;;;;;5033220;28;20450;-68
2023/08/27 06:23:27;;;;;;;9.60;5.43;;;18.20;98.00;;;;;;5031932;28;20447;-68
2023/08/27 06:25:54;;;;;;;7.70;4.90;;;18.10;98.00;;;;;;5033100;28;20524;-68
2023/08/27 06:28:21;;;;;;;8.20;4.50;;;18.10;98.00;;;;;;5032951;28;20454;-68
2023/08/27 06:30:50;;;;;;;8.80;5.00;;;18.20;98.00;;;;;;5031663;28;20446;-67
2023/08/27 06:33:17;;;;;;;8.53;4.80;;;18.20;98.00;;;;;;5031736;28;20474;-68
2023/08/27 06:35:44;;;;;;;7.77;4.80;;;18.30;98.00;;;;;;5032808;28;20556;-68
2023/08/27 06:38:11;;;;;;;8.63;4.53;;;18.20;98.00;;;;;;5033061;28;20466;-68
2023/08/27 06:40:38;;;;;;;7.60;4.67;;;18.20;98.00;;;;;;5032826;28;20450;-65
2023/08/27 06:43:05;;;;;;;7.83;4.63;;;18.20;98.00;;;;;;5031798;28;20459;-65
2023/08/27 06:45:32;;;;;;;10.23;4.80;;;18.30;98.00;;;;;;5031502;28;20451;-66
2023/08/27 06:48:01;;;;;;;7.47;4.37;;;18.20;98.00;;;;;;5031532;28;20457;-65
2023/08/27 06:50:28;;;;;;;6.63;4.27;;;18.10;98.00;;;;;;5032674;28;20451;-66
2023/08/27 06:52:55;;;;;;;12.17;4.77;;;18.20;98.00;;;;;;5032660;28;20816;-65
2023/08/27 06:55:22;;;;;;;6.73;4.07;;;18.30;98.00;;;;;;5032454;28;20980;-66
2023/08/27 06:57:49;;;;;;;8.87;4.93;;;18.30;98.00;;;;;;5032472;28;20945;-65
2023/08/27 07:00:17;;;;;;;7.60;4.70;;;18.30;98.00;;;;;;5032514;28;20458;-66
2023/08/27 07:02:45;;;;;;;6.00;4.07;;;18.30;98.00;;;;;;5032595;28;20447;-65
2023/08/27 07:05:13;;;;;;;6.93;4.50;;;18.30;98.00;;;;;;5032313;28;20478;-66
2023/08/27 07:07:42;;;;;;;7.80;3.90;;;18.40;98.00;;;;;;5032124;28;20454;-66
2023/08/27 07:10:10;;;;;;;6.83;4.30;;;18.60;98.00;;;;;;5032286;28;20525;-66
2023/08/27 07:12:37;;;;;;;12.17;5.53;;;;;;;;;;5032408;28;20483;-65
2023/08/27 07:15:05;;;;;;;10.30;4.43;;;18.80;98.00;;;;;;5032507;28;20486;-66
2023/08/27 07:17:33;;;;;;;5.70;3.70;;;18.80;98.00;;;;;;5032326;28;21032;-66
2023/08/27 07:20:00;;;;;;;6.20;3.90;;;18.80;98.00;;;;;;5032141;28;20484;-65
2023/08/27 07:22:28;;;;;;;5.90;3.80;;;18.80;98.00;;;;;;5031260;28;20455;-66
2023/08/27 07:24:56;;;;;;;5.80;3.80;;;18.90;98.00;;;;;;5031321;28;20462;-65
2023/08/27 07:27:24;;;;;;;5.03;3.60;;;19.00;98.00;;;;;;5032207;28;20457;-65
2023/08/27 07:29:51;;;;;;;4.70;3.43;;;19.00;98.00;;;;;;5032324;28;20465;-66
2023/08/27 07:32:18;;;;;;;6.70;4.10;;;19.10;98.00;;;;;;5031771;28;20461;-66
2023/08/27 07:34:45;;;;;;;6.50;3.90;;;19.00;98.00;;;;;;5032033;28;20559;-66
2023/08/27 07:37:12;;;;;;;8.33;4.50;;;19.00;98.00;;;;;;5031788;28;20454;-65
2023/08/27 07:39:41;;;;;;;9.20;4.57;;;19.00;98.00;;;;;;5032220;28;20832;-65
2023/08/27 07:42:08;;;;;;;10.03;4.83;;;19.10;98.00;;;;;;5031823;28;20939;-65
2023/08/27 07:44:35;;;;;;;5.93;4.00;;;19.00;98.00;;;;;;5032274;28;20935;-65
2023/08/27 07:47:03;;;;;;;7.30;4.77;;;19.10;98.00;;;;;;5031888;28;20455;-65
2023/08/27 07:49:30;;;;;;;5.93;3.90;;;19.00;98.00;;;;;;5031666;28;20516;-65
2023/08/27 07:51:57;;;;;;;6.77;3.13;;;18.90;98.00;;;;;;5253419;22;20986;-65
2023/08/27 07:54:25;;;;;;;4.10;3.10;;;18.80;98.00;;;;;;5070688;28;20894;-65
2023/08/27 07:56:53;;;;;;;4.03;2.97;;;18.80;98.00;;;;;;5071074;28;20812;-65
2023/08/27 07:59:20;;;;;;;3.93;2.67;;;18.80;98.00;;;;;;5053225;28;20460;-65
2023/08/27 08:01:47;;;;;;;7.27;3.40;;;18.80;98.00;;;;;;5071092;28;20918;-65
2023/08/27 08:04:14;;;;;;;6.17;3.43;;;18.90;98.00;;;;;;5070853;28;20453;-65
2023/08/27 08:06:41;;;;;;;9.73;3.67;;;19.20;98.00;;;;;;5069757;28;20515;-65
2023/08/27 08:09:09;;;;;;;4.87;3.00;;;19.30;98.00;;;;;;5070967;28;20459;-64
2023/08/27 08:11:36;;;;;;;4.67;2.87;;;19.50;98.00;;;;;;5069739;28;20486;-65
2023/08/27 08:14:05;;;;;;;7.33;3.20;;;19.50;98.00;;;;;;5070644;28;20467;-65
2023/08/27 08:16:32;;;;;;;5.20;3.03;;;19.60;98.00;;;;;;5069329;28;20485;-65
2023/08/27 08:18:59;;;;;;;6.10;3.37;;;19.70;98.00;;;;;;5070836;28;20448;-65
2023/08/27 08:21:26;;;;;;;4.17;2.80;;;19.80;98.00;;;;;;5069284;28;20464;-65
2023/08/27 08:23:53;;;;;;;4.70;3.10;;;19.90;98.00;;;;;;5070632;28;20448;-65
2023/08/27 08:26:21;;;;;;;4.00;2.90;;;19.90;98.00;;;;;;5070504;28;20541;-65
2023/08/27 08:28:48;;;;;;;3.80;2.80;;;20.00;98.00;;;;;;5069404;28;20463;-65
2023/08/27 08:31:18;;;;;;;4.60;3.37;;;19.90;98.00;;;;;;5070405;28;20448;-65
2023/08/27 08:33:45;;;;;;;4.10;2.97;;;19.70;98.00;;;;;;5052638;28;20464;-65
2023/08/27 08:36:12;;;;;;;5.70;3.30;;;19.80;98.00;;;;;;5072840;28;20485;-65
2023/08/27 08:38:39;;;;;;;5.10;3.00;;;19.80;98.00;;;;;;5074041;28;20453;-65
2023/08/27 08:41:10;;;;;;;3.97;2.80;;;19.80;98.00;;;;;;5073653;28;20453;-65
2023/08/27 08:43:39;;;;;;;4.50;3.00;;;19.80;98.00;;;;;;5073689;28;20453;-65
2023/08/27 08:46:07;;;;;;;4.97;2.63;;;19.70;98.00;;;;;;5073921;28;20456;-65
2023/08/27 08:48:39;;;;;;;4.70;2.90;;;19.80;98.00;;;;;;5074124;28;20449;-65
2023/08/27 08:51:08;;;;;;;3.33;2.60;;;19.80;98.00;;;;;;5074198;28;20522;-65
2023/08/27 08:53:40;;;;;;;7.27;2.60;;;19.80;98.00;;;;;;5074332;28;20449;-65
2023/08/27 08:56:11;;;;;;;5.67;2.80;;;19.80;98.00;;;;;;5074537;28;20487;-65
2023/08/27 08:58:42;;;;;;;3.80;2.40;;;19.70;98.00;;;;;;5074883;28;20475;-65
2023/08/27 09:01:10;;;;;;;4.77;2.57;;;19.70;98.00;;;;;;5074866;28;20837;-65
2023/08/27 09:03:41;;;;;;;5.77;2.43;;;19.70;98.00;;;;;;5075037;28;20853;-65
2023/08/27 09:06:08;;;;;;;2.77;2.40;;;19.80;98.00;;;;;;5073942;28;20811;-65
2023/08/27 09:08:37;;;;;;;3.47;2.53;;;19.80;98.00;;;;;;5074879;28;20457;-65
2023/08/27 09:11:04;;;;;;;2.67;2.10;;;20.00;98.00;;;;;;5074414;28;20885;-65
2023/08/27 09:13:32;;;;;;;4.43;2.47;;;20.10;98.00;;;;;;5074372;28;20507;-65
2023/08/27 09:15:59;;;;;;;3.00;2.27;;;20.30;98.00;;;;;;5074143;28;20476;-65
2023/08/27 09:18:26;;;;;;;2.60;2.10;;;20.30;98.00;;;;;;5074101;28;20475;-66
2023/08/27 09:20:55;;;;;;;3.73;2.30;;;20.30;98.00;;;;;;5074471;28;20449;-65
2023/08/27 09:23:25;;;;;;;3.10;2.20;;;20.30;98.00;;;;;;5073158;28;20502;-65
2023/08/27 09:25:53;;;;;;;13.03;2.60;;;20.50;98.00;;;;;;5261146;22;20486;-64
2023/08/27 09:28:21;;;;;;;2.60;2.17;;;20.60;98.00;;;;;;5054072;28;20485;-64
2023/08/27 09:30:48;;;;;;;2.27;2.00;;;20.50;98.00;;;;;;5036307;28;20461;-64
2023/08/27 09:33:15;;;;;;;2.97;2.13;;;20.40;98.00;;;;;;5053986;28;20791;-65
2023/08/27 09:35:42;;;;;;;2.57;2.00;;;20.30;98.00;;;;;;5053797;28;20482;-64
2023/08/27 09:38:15;;;;;;;2.90;2.33;;;20.40;98.00;;;;;;5036462;28;20454;-64
2023/08/27 09:40:42;;;;;;;3.70;2.50;;;20.40;98.00;;;;;;5054066;28;20457;-65
2023/08/27 09:43:12;;;;;;;5.87;2.33;;;20.40;98.00;;;;;;5053903;28;20461;-65
2023/08/27 09:45:39;;;;;;;4.20;2.90;;;20.40;98.00;;;;;;5054117;28;20462;-65
2023/08/27 09:48:07;;;;;;;2.90;2.00;;;20.20;98.00;;;;;;5053310;28;20457;-66
2023/08/27 09:50:34;;;;;;;2.70;2.10;;;20.10;98.00;;;;;;5053743;28;20449;-65
2023/08/27 09:53:10;;;;;;;3.03;2.17;;;20.10;98.00;;;;;;5053850;28;20848;-65
2023/08/27 09:55:38;;;;;;;3.60;2.50;;;20.20;98.00;;;;;;5053645;28;20489;-65
2023/08/27 09:58:07;;;;;;;2.93;2.17;;;20.40;98.00;;;;;;5053744;28;20450;-65
2023/08/27 10:00:35;;;;;;;4.57;2.70;;;20.50;98.00;;;;;;5020137;28;20897;-65
2023/08/27 10:03:03;;;;;;;3.80;2.40;;;20.50;98.00;;;;;;5054001;28;20446;-65
2023/08/27 10:05:34;;;;;;;3.47;2.23;;;20.60;98.00;;;;;;5053106;28;20515;-65
2023/08/27 10:08:03;;;;;;;4.83;2.40;;;20.80;98.00;;;;;;5053376;28;20463;-65
2023/08/27 10:10:31;;;;;;;3.00;2.10;;;20.90;98.00;;;;;;5053187;28;20469;-65
2023/08/27 10:13:01;;;;;;;3.80;2.33;;;21.10;98.00;;;;;;5053324;28;20454;-65
2023/08/27 10:15:29;;;;;;;3.60;2.50;;;21.20;98.00;;;;;;5052978;28;20474;-65
2023/08/27 10:17:57;;;;;;;2.73;2.20;;;21.20;98.00;;;;;;5053203;28;20511;-65
2023/08/27 10:20:25;;;;;;;2.70;1.90;;;21.20;98.00;;;;;;5052986;28;20484;-65
2023/08/27 10:22:52;;;;;;;2.20;2.00;;;21.00;98.00;;;;;;5053128;28;20453;-65
2023/08/27 10:25:19;;;;;;;3.50;2.30;;;20.90;98.00;;;;;;5052870;28;20466;-65
2023/08/27 10:27:49;;;;;;;3.33;2.53;;;20.90;98.00;;;;;;5052947;28;20441;-65
2023/08/27 10:30:18;;;;;;;3.77;2.03;;;20.80;98.00;;;;;;5052800;28;20457;-65
2023/08/27 10:32:45;;;;;;;3.23;2.33;;;20.90;98.00;;;;;;5052870;28;20807;-65
2023/08/27 10:35:14;;;;;;;4.73;2.27;;;20.70;98.00;;;;;;5052847;28;20450;-65
2023/08/27 10:37:48;;;;;;;3.57;2.30;;;20.70;98.00;;;;;;5052701;28;20541;-65
2023/08/27 10:40:16;;;;;;;4.13;2.17;;;20.70;98.00;;;;;;5052715;28;20548;-65
2023/08/27 10:42:44;;;;;;;4.30;2.20;;;20.70;98.00;;;;;;5035032;28;20454;-65
2023/08/27 10:45:15;;;;;;;2.90;2.30;;;20.60;98.00;;;;;;5052775;28;20457;-65
2023/08/27 10:48:10;;;;;;;3.43;2.23;;;20.60;98.00;;;;;;5052748;28;20496;-65
2023/08/27 10:50:47;;;;;;;3.40;2.27;;;20.50;98.00;;;;;;5052737;28;20456;-65
2023/08/27 10:53:16;;;;;;;5.80;2.40;;;20.60;98.00;;;;;;5052677;28;20853;-65
2023/08/27 10:55:44;;;;;;;3.13;2.00;;;20.60;98.00;;;;;;5052683;28;20488;-65
2023/08/27 10:58:16;;;;;;;2.87;2.00;;;20.70;98.00;;;;;;5052454;28;20460;-65
2023/08/27 11:01:03;;;;;;;3.07;2.40;;;20.70;98.00;;;;;;5052675;28;20537;-65
2023/08/27 11:03:51;;;;;;;3.80;2.20;;;20.80;98.00;;;;;;5052308;28;20453;-65
2023/08/27 11:06:20;;;;;;;3.80;2.27;;;21.00;98.00;;;;;;5052255;28;21102;-65
2023/08/27 11:08:52;;;;;;;3.33;2.47;;;21.00;98.00;;;;;;5051938;28;20450;-65
2023/08/27 11:11:25;;;;;;;2.97;2.10;;;21.00;98.00;;;;;;5052287;28;20544;-65
2023/08/27 11:14:02;;;;;;;3.57;2.20;;;21.20;98.00;;;;;;5052321;28;20549;-65
2023/08/27 11:16:30;;;;;;;2.83;2.20;;;21.30;98.00;;;;;;5051961;28;20517;-65
2023/08/27 11:18:59;;;;;;;3.00;2.20;;;21.40;98.00;;;;;;5052189;28;20454;-65
2023/08/27 11:21:42;;;;;;;3.57;2.30;;;21.20;98.00;;;;;;5051921;28;20848;-65
2023/08/27 11:24:17;;;;;;;3.70;2.40;;;21.10;98.00;;;;;;5034793;28;20511;-66
2023/08/27 11:26:46;;;;;;;2.97;2.13;;;21.00;98.00;;;;;;5051744;28;20488;-65
2023/08/27 11:29:13;;;;;;;2.67;2.07;;;20.90;98.00;;;;;;5051663;28;20811;-65
2023/08/27 11:31:41;;;;;;;3.70;2.33;;;21.00;98.00;;;;;;5051851;28;20462;-66
2023/08/27 11:34:12;;;;;;;3.57;2.30;;;21.00;98.00;;;;;;5051908;28;20620;-65
2023/08/27 11:36:40;;;;;;;4.03;2.30;;;20.90;98.00;;;;;;5052070;28;20485;-65
2023/08/27 11:39:10;;;;;;;4.87;2.10;;;21.00;98.00;;;;;;5052062;28;20453;-65
2023/08/27 11:41:39;;;;;;;3.27;2.40;;;21.00;98.00;;;;;;5051880;28;21074;-65
2023/08/27 11:44:10;;;;;;;6.37;2.20;;;21.10;98.00;;;;;;5052079;28;20462;-65
2023/08/27 11:46:38;;;;;;;3.40;2.30;;;21.20;98.00;;;;;;5051832;28;20811;-65
2023/08/27 11:49:05;;;;;;;7.70;2.40;;;21.40;98.00;;;;;;5052029;28;20461;-65
2023/08/27 11:51:36;;;;;;;3.37;2.37;;;21.60;98.00;;;;;;5051745;28;20485;-65
2023/08/27 11:54:07;;;;;;;2.50;2.10;;;21.90;98.00;;;;;;5034401;28;20457;-65
2023/08/27 11:56:36;;;;;;;4.93;2.53;;;22.20;98.00;;;;;;5051725;28;20576;-65
2023/08/27 11:59:05;;;;;;;3.50;2.30;;;22.50;98.00;;;;;;5051994;28;20496;-65
2023/08/27 12:01:33;;;;;;;2.67;2.13;;;22.70;98.00;;;;;;5051676;28;20465;-65
2023/08/27 12:04:01;;;;;;;3.90;2.30;;;22.70;98.00;;;;;;5034294;28;20485;-65
2023/08/27 12:06:28;;;;;;;3.63;2.30;;;22.80;98.00;;;;;;5051285;28;20480;-65
2023/08/27 12:08:58;;;;;;;4.17;2.27;;;22.90;98.00;;;;;;5051587;28;20488;-65
2023/08/27 12:11:27;;;;;;;5.40;2.30;;;22.90;98.00;;;;;;5054741;28;21005;-65
2023/08/27 12:13:58;;;;;;;3.27;2.27;;;22.80;98.00;;;;;;5055631;28;20480;-65
2023/08/27 12:16:29;;;;;;;4.00;2.27;;;22.70;98.00;;;;;;5055468;28;20564;-65
2023/08/27 12:19:06;;;;;;;3.20;2.20;;;22.50;98.00;;;;;;5055577;28;20916;-65
2023/08/27 12:21:36;;;;;;;2.60;2.20;;;22.20;98.00;;;;;;5055548;28;20453;-65
2023/08/27 12:24:06;;;;;;;4.40;2.20;;;22.10;98.00;;;;;;5055485;28;20459;-66
2023/08/27 12:26:34;;;;;;;2.97;2.30;;;22.00;98.00;;;;;;5055118;28;21017;-65
2023/08/27 12:29:01;;;;;;;4.70;2.30;;;22.00;98.00;;;;;;5055516;28;20863;-65
2023/08/27 12:31:28;;;;;;;2.80;2.20;;;22.00;98.00;;;;;;5055199;28;20457;-65
2023/08/27 12:34:00;;;;;;;3.30;2.07;;;22.00;98.00;;;;;;5037514;28;20972;-65
2023/08/27 12:36:27;;;;;;;3.23;2.20;;;22.00;98.00;;;;;;5037746;28;20485;-65
2023/08/27 12:38:54;;;;;;;3.60;2.20;;;22.20;98.00;;;;;;5055287;28;20529;-66
2023/08/27 12:41:23;;;;;;;3.13;2.17;;;22.30;98.00;;;;;;5055183;28;20488;-65
2023/08/27 12:43:52;;;;;;;3.10;2.40;;;22.40;98.00;;;;;;5055015;28;20449;-65
2023/08/27 12:46:19;;;;;;;4.40;2.40;;;22.40;98.00;;;;;;5055226;28;20818;-65
2023/08/27 12:48:47;;;;;;;4.27;2.10;;;22.30;98.00;;;;;;5055001;28;20454;-66
2023/08/27 12:51:15;;;;;;;3.97;2.20;;;22.20;98.00;;;;;;5055171;28;20488;-65